Time;durP1;ratioP1;P1;durP2;ratioP2;P2;SDS_P1;SDS_P2;PMS_P1;PMS_P2;Temp;Humidity;BMP_temperature;BMP_pressure;BME280_temperature;BME280_humidity;BME280_pressure;Samples;Min_cycle;Max_cycle;Signal;HPM_P1;HPM_P2
2023/12/05 00:01:53;;;;;;;23.63;8.57;;;;;;;-1.41;100.00;100054.38;6037229;28;20286;-81
2023/12/05 00:04:48;;;;;;;26.88;8.82;;;;;;;-1.41;100.00;100050.00;6036730;28;20288;-79
2023/12/05 00:07:55;;;;;;;21.23;9.33;;;;;;;-1.40;100.00;100038.69;6035382;28;20061;-82
2023/12/05 00:10:54;;;;;;;17.30;6.90;;;;;;;-1.37;100.00;100051.53;6047617;28;20269;-84
2023/12/05 00:13:53;;;;;;;18.30;6.00;;;;;;;-1.41;100.00;100033.56;6015345;28;20100;-79
2023/12/05 00:16:51;;;;;;;21.48;7.75;;;;;;;-1.45;100.00;100027.72;6036405;28;20088;-83
2023/12/05 00:19:52;;;;;;;25.35;8.80;;;;;;;-1.34;100.00;100043.56;6032290;28;20026;-83
2023/12/05 00:22:48;;;;;;;23.60;9.02;;;;;;;-1.34;100.00;100042.72;6036473;28;20781;-79
2023/12/05 00:25:43;;;;;;;25.80;11.33;;;;;;;-1.35;100.00;100034.06;6036621;28;20052;-80
2023/12/05 00:28:39;;;;;;;18.70;8.52;;;;;;;-1.40;100.00;100017.91;6040100;28;20033;-79
2023/12/05 00:31:34;;;;;;;27.73;9.93;;;;;;;-1.39;100.00;100016.13;6044221;28;20038;-79
2023/12/05 00:34:38;;;;;;;28.70;11.37;;;;;;;-1.32;100.00;100020.03;6038248;28;20037;-82
2023/12/05 00:37:58;;;;;;;24.60;9.07;;;;;;;-1.45;100.00;99996.53;6038785;28;20356;-82
2023/12/05 00:41:05;;;;;;;20.85;8.00;;;;;;;-1.40;100.00;99997.09;6036667;28;20042;-83
2023/12/05 00:44:07;;;;;;;23.05;9.10;;;;;;;-1.45;100.00;99985.28;6035405;28;20157;-80
2023/12/05 00:47:14;;;;;;;21.90;10.40;;;;;;;-1.32;100.00;100010.50;6043197;28;20397;-80
2023/12/05 00:50:10;;;;;;;26.65;9.45;;;;;;;-1.28;100.00;100019.78;6043661;28;20501;-83
2023/12/05 00:53:25;;;;;;;24.13;9.73;;;;;;;-1.27;100.00;100005.84;6042315;28;20038;-80
2023/12/05 00:56:20;;;;;;;19.63;7.82;;;;;;;-1.38;100.00;99986.59;6029425;28;20089;-80
2023/12/05 00:59:31;;;;;;;21.47;8.40;;;;;;;-1.34;100.00;99990.72;6039800;28;20030;-81
2023/12/05 01:02:30;;;;;;;14.40;6.40;;;;;;;-1.35;100.00;99981.22;6030112;28;20120;-80
2023/12/05 01:05:31;;;;;;;23.90;7.40;;;;;;;-1.18;100.00;99991.47;6037514;28;20038;-83
2023/12/05 01:08:27;;;;;;;25.08;8.98;;;;;;;-1.18;100.00;100001.03;6026701;28;20038;-81
2023/12/05 01:11:22;;;;;;;18.23;6.40;;;;;;;-1.26;100.00;99972.91;6028431;28;20540;-81
2023/12/05 01:14:20;;;;;;;26.08;9.13;;;;;;;-1.32;100.00;99966.28;6027174;28;20539;-82
2023/12/05 01:17:16;;;;;;;22.63;8.75;;;;;;;-1.26;100.00;99965.09;6026408;28;20430;-82
2023/12/05 01:20:14;;;;;;;19.15;7.90;;;;;;;-1.23;100.00;99973.56;6027063;28;20046;-84
2023/12/05 01:23:12;;;;;;;26.58;10.25;;;;;;;-1.13;100.00;99978.19;6032026;28;20120;-80
2023/12/05 01:26:34;;;;;;;19.67;8.18;;;;;;;-1.05;100.00;99989.84;6022707;28;20101;-82
2023/12/05 01:29:38;;;;;;;19.35;8.07;;;;;;;-1.16;100.00;99963.63;6018263;28;20038;-83
2023/12/05 01:32:37;;;;;;;19.00;9.00;;;;;;;-1.22;100.00;99957.00;6030874;28;20029;-81
2023/12/05 01:35:32;;;;;;;28.60;10.00;;;;;;;-1.18;100.00;99967.25;6031607;28;20437;-81
2023/12/05 01:38:34;;;;;;;24.25;8.73;;;;;;;-1.21;100.00;99958.69;6032756;28;20065;-83
2023/12/05 01:41:33;;;;;;;26.52;9.10;;;;;;;-1.03;100.00;99992.34;6028562;28;20038;-83
2023/12/05 01:44:31;;;;;;;16.45;6.28;;;;;;;-1.09;100.00;99974.50;6025710;28;20038;-79
2023/12/05 01:47:56;;;;;;;20.95;9.85;;;;;;;-1.14;100.00;99973.94;6027100;28;20126;-81
2023/12/05 01:51:35;;;;;;;26.88;8.68;;;;;;;-1.31;100.00;99947.19;6025700;28;20506;-82
2023/12/05 01:54:31;;;;;;;23.42;9.23;;;;;;;-1.17;100.00;99968.94;6005170;28;20054;-80
2023/12/05 01:57:28;;;;;;;25.27;11.48;;;;;;;-1.23;100.00;99970.97;6026644;28;20038;-80
2023/12/05 02:00:24;;;;;;;26.17;9.30;;;;;;;-1.18;100.00;99975.03;6024824;28;20046;-78
2023/12/05 02:03:22;;;;;;;20.27;7.68;;;;;;;-1.36;100.00;99964.78;6027473;28;20109;-82
2023/12/05 02:06:26;;;;;;;22.48;8.57;;;;;;;-1.26;100.00;99976.34;6024346;28;20034;-78
2023/12/05 02:09:24;;;;;;;27.10;11.25;;;;;;;-1.36;100.00;99971.78;6031630;28;20043;-83
2023/12/05 02:12:38;;;;;;;24.67;9.02;;;;;;;-1.37;100.00;99960.53;6030193;28;20050;-80
2023/12/05 02:15:43;;;;;;;26.17;10.23;;;;;;;-1.36;100.00;99963.97;6023429;28;20034;-82
2023/12/05 02:19:03;;;;;;;24.60;8.98;;;;;;;-1.44;100.00;99956.59;6024584;28;20042;-79
2023/12/05 02:22:14;;;;;;;24.17;10.25;;;;;;;-1.50;100.00;99946.56;6026131;28;20100;-81
2023/12/05 02:25:47;;;;;;;26.90;10.38;;;;;;;-1.29;100.00;99963.50;6009760;28;20034;-83
2023/12/05 02:29:10;;;;;;;26.70;10.63;;;;;;;-1.51;100.00;99934.50;6039021;28;20045;-82
2023/12/05 02:32:16;;;;;;;25.95;11.25;;;;;;;-1.35;100.00;99961.28;6022637;28;20478;-83
2023/12/05 02:35:34;;;;;;;22.73;8.00;;;;;;;-1.31;100.00;99952.38;6028071;28;20121;-81
2023/12/05 02:38:54;;;;;;;26.35;9.68;;;;;;;-1.40;100.00;99942.50;6000552;28;20059;-84
2023/12/05 02:42:03;;;;;;;24.38;8.40;;;;;;;-1.33;100.00;99953.38;6017651;28;20038;-80
2023/12/05 02:45:36;;;;;;;;;;;;;;;;;;;;;
2023/12/05 02:48:37;;;;;;;25.58;8.80;;;;;;;-1.49;100.00;99922.25;6037843;28;20177;-81
2023/12/05 02:51:33;;;;;;;19.17;7.38;;;;;;;-1.41;100.00;99929.59;6024887;28;20488;-84
2023/12/05 02:54:54;;;;;;;18.05;7.32;;;;;;;-1.32;100.00;99944.66;6024796;28;20034;-82
2023/12/05 02:58:20;;;;;;;23.40;8.85;;;;;;;-1.55;100.00;99912.19;6004567;28;20073;-83
2023/12/05 03:01:15;;;;;;;28.25;12.13;;;;;;;-1.36;100.00;99933.59;6024892;28;20383;-81
2023/12/05 03:04:10;;;;;;;24.92;9.07;;;;;;;-1.58;100.00;99901.16;6024537;28;20026;-80
2023/12/05 03:07:15;;;;;;;25.17;9.03;;;;;;;-1.48;100.00;99913.53;6057016;28;20042;-84
2023/12/05 03:10:32;;;;;;;27.02;10.27;;;;;;;-1.36;100.00;99928.38;6028481;28;20049;-83
2023/12/05 03:17:25;;;;;;;21.65;7.97;;;;;;;-1.47;100.00;99904.78;6033968;28;20065;-84
2023/12/05 03:20:23;;;;;;;21.83;8.90;;;;;;;-1.46;100.00;99911.66;6031600;28;20034;-84
2023/12/05 03:23:30;;;;;;;35.38;9.85;;;;;;;-1.59;100.00;99889.94;6023825;28;20038;-84
2023/12/05 03:26:25;;;;;;;22.98;9.57;;;;;;;-1.42;100.00;99907.13;6025922;28;20069;-80
2023/12/05 03:29:39;;;;;;;26.93;9.70;;;;;;;-1.42;100.00;99902.78;6024442;28;21261;-82
2023/12/05 03:32:50;;;;;;;27.48;11.40;;;;;;;-1.48;100.00;99903.13;6025347;28;20297;-84
2023/12/05 03:35:52;;;;;;;25.05;9.73;;;;;;;-1.53;100.00;99880.94;6025972;28;20121;-83
2023/12/05 03:39:10;;;;;;;32.42;11.45;;;;;;;-1.50;100.00;99885.94;6010239;28;20033;-82
2023/12/05 03:42:05;;;;;;;29.27;9.65;;;;;;;-1.37;100.00;99900.72;6026508;28;20393;-83
2023/12/05 03:45:26;;;;;;;20.63;8.10;;;;;;;-1.31;100.00;99904.72;6032254;28;20030;-82
2023/12/05 03:48:47;;;;;;;25.95;9.70;;;;;;;-1.48;100.00;99879.72;6033097;28;20025;-85
2023/12/05 03:51:43;;;;;;;22.17;8.05;;;;;;;-1.37;100.00;99895.53;6033283;28;20447;-81
2023/12/05 03:54:53;;;;;;;28.80;10.77;;;;;;;-1.27;100.00;99914.00;6033198;28;20041;-83
2023/12/05 03:57:49;;;;;;;28.60;9.35;;;;;;;-1.47;100.00;99881.38;6033036;28;20026;-82
2023/12/05 04:00:44;;;;;;;21.37;9.23;;;;;;;-1.38;100.00;99899.06;6030967;28;20473;-84
2023/12/05 04:03:46;;;;;;;23.05;9.82;;;;;;;-1.35;100.00;99901.47;6032356;28;20285;-85
2023/12/05 04:07:10;;;;;;;;;;;;;;;;;;;;;
2023/12/05 04:10:42;;;;;;;25.88;10.13;;;;;;;-1.32;100.00;99896.09;5997415;28;19997;-83
2023/12/05 04:14:07;;;;;;;28.90;10.40;;;;;;;-1.27;100.00;99894.03;5995547;28;20486;-83
2023/12/05 04:17:11;;;;;;;18.90;8.18;;;;;;;-1.31;100.00;99895.19;6036660;28;20535;-84
2023/12/05 04:20:10;;;;;;;18.00;7.68;;;;;;;-1.43;100.00;99869.91;6029376;28;20026;-81
2023/12/05 04:23:28;;;;;;;19.65;7.90;;;;;;;-1.39;100.00;99881.78;6032840;28;20482;-85
2023/12/05 04:26:26;;;;;;;18.55;8.07;;;;;;;-1.38;100.00;99883.44;6036001;28;20034;-83
2023/12/05 04:29:24;;;;;;;25.42;8.38;;;;;;;-1.21;100.00;99906.69;6030518;28;20030;-83
2023/12/05 04:32:51;;;;;;;24.35;9.05;;;;;;;-1.20;100.00;99897.94;6067172;28;20031;-85
2023/12/05 04:35:55;;;;;;;20.55;8.55;;;;;;;-1.38;100.00;99874.81;6032395;28;20045;-82
2023/12/05 04:38:52;;;;;;;25.23;9.55;;;;;;;-1.38;100.00;99875.66;6029054;28;20034;-81
2023/12/05 04:41:51;;;;;;;19.17;7.28;;;;;;;-1.27;100.00;99895.81;6030408;28;20501;-85
2023/12/05 04:44:59;;;;;;;24.13;9.52;;;;;;;-1.19;100.00;99898.78;6032406;28;20034;-82
2023/12/05 04:47:58;;;;;;;19.92;9.05;;;;;;;-1.39;100.00;99875.75;6031102;28;20691;-85
2023/12/05 04:50:56;;;;;;;27.50;10.43;;;;;;;-1.24;100.00;99904.25;6017506;28;20128;-86
2023/12/05 04:54:18;;;;;;;26.88;8.88;;;;;;;-1.33;100.00;99886.59;6017976;28;20038;-84
2023/12/05 04:57:19;;;;;;;28.30;10.20;;;;;;;-1.35;100.00;99892.81;6029473;28;20038;-83
2023/12/05 05:00:22;;;;;;;27.02;9.27;;;;;;;-1.46;100.00;99870.06;6022291;28;20030;-81
2023/12/05 05:03:38;;;;;;;23.45;7.55;;;;;;;-1.32;100.00;99888.28;6029345;28;20489;-83
2023/12/05 05:06:34;;;;;;;26.38;9.95;;;;;;;-1.42;100.00;99883.72;6038295;28;20034;-81
2023/12/05 05:09:44;;;;;;;26.63;9.83;;;;;;;-1.48;100.00;99874.53;6033631;28;20030;-80
2023/12/05 05:13:05;;;;;;;28.02;10.98;;;;;;;-1.32;100.00;99908.25;6064834;28;20371;-85
2023/12/05 05:16:00;;;;;;;28.77;11.85;;;;;;;-1.32;100.00;99897.84;6030505;28;20106;-79
2023/12/05 05:19:02;;;;;;;22.93;9.03;;;;;;;-1.33;100.00;99899.59;6043644;28;20034;-81
2023/12/05 05:22:00;;;;;;;;;;;;;;;-1.30;100.00;99901.19;6029799;28;20030;-84
2023/12/05 05:24:55;;;;;;;15.52;6.72;;;;;;;-1.31;100.00;99895.19;6040545;28;20554;-81
2023/12/05 05:27:55;;;;;;;24.88;10.00;;;;;;;-1.40;100.00;99885.31;6027447;28;20022;-80
2023/12/05 05:30:58;;;;;;;20.08;7.85;;;;;;;-1.42;100.00;99879.38;6036406;28;20092;-87
2023/12/05 05:34:26;;;;;;;27.08;9.73;;;;;;;-1.31;100.00;99899.53;6030173;28;20030;-83
2023/12/05 05:37:21;;;;;;;29.25;9.82;;;;;;;-1.39;100.00;99887.00;6027974;28;20394;-83
2023/12/05 05:40:19;;;;;;;29.13;10.43;;;;;;;-1.35;100.00;99888.47;6031213;28;20045;-85
2023/12/05 05:43:15;;;;;;;28.60;9.77;;;;;;;-1.37;100.00;99885.13;6033790;28;20776;-81
2023/12/05 05:46:10;;;;;;;32.73;11.07;;;;;;;-1.31;100.00;99896.94;6030920;28;20042;-83
2023/12/05 05:49:14;;;;;;;32.28;11.43;;;;;;;-1.44;100.00;99859.59;6031818;28;20026;-81
2023/12/05 05:52:09;;;;;;;27.33;9.77;;;;;;;-1.30;100.00;99896.81;6030639;28;20389;-81
2023/12/05 05:55:37;;;;;;;30.67;11.60;;;;;;;-1.32;100.00;99885.69;6030621;28;20065;-82
2023/12/05 05:58:43;;;;;;;;;;;;;;;-1.28;100.00;99888.94;6012251;28;20485;-84
2023/12/05 06:01:42;;;;;;;31.63;12.30;;;;;;;-1.42;100.00;99871.56;6029950;28;20329;-82
2023/12/05 06:04:41;;;;;;;38.90;14.60;;;;;;;-1.35;100.00;99875.47;6034082;28;20613;-82
2023/12/05 06:07:37;;;;;;;28.83;9.57;;;;;;;-1.22;100.00;99893.75;6033628;28;20085;-79
2023/12/05 06:10:36;;;;;;;25.38;10.38;;;;;;;-1.28;100.00;99889.75;6027672;28;20094;-85
2023/12/05 06:13:31;;;;;;;30.98;10.95;;;;;;;-1.22;100.00;99894.59;6012210;28;20137;-80
2023/12/05 06:16:54;;;;;;;39.20;11.90;;;;;;;-1.20;100.00;99886.72;6026999;28;20502;-84
2023/12/05 06:19:53;;;;;;;29.67;9.90;;;;;;;-1.18;100.00;99889.22;6060022;28;20101;-86
2023/12/05 06:22:57;;;;;;;28.73;11.48;;;;;;;-1.39;100.00;99866.19;6030803;28;20026;-83
2023/12/05 06:26:11;;;;;;;27.83;10.27;;;;;;;-1.28;100.00;99886.34;6027913;28;20045;-83
2023/12/05 06:29:07;;;;;;;39.70;12.85;;;;;;;-1.25;100.00;99896.56;6041206;28;20097;-82
2023/12/05 06:32:02;;;;;;;39.28;13.60;;;;;;;-1.36;100.00;99876.38;6028683;28;20096;-82
2023/12/05 06:34:57;;;;;;;30.17;9.68;;;;;;;-1.26;100.00;99880.13;6010749;28;20038;-83
2023/12/05 06:38:02;;;;;;;31.00;10.27;;;;;;;-1.28;100.00;99870.75;6030858;28;20037;-81
2023/12/05 06:40:57;;;;;;;32.35;11.02;;;;;;;-1.35;100.00;99861.63;6011273;28;20028;-82
2023/12/05 06:44:06;;;;;;;34.22;10.95;;;;;;;-1.34;100.00;99874.56;6025676;28;20042;-83
2023/12/05 06:47:07;;;;;;;36.15;13.30;;;;;;;-1.35;100.00;99857.28;6025342;28;20570;-82
2023/12/05 06:50:05;;;;;;;43.20;15.02;;;;;;;-1.30;100.00;99872.59;6028403;28;20144;-80
2023/12/05 06:53:01;;;;;;;36.53;13.35;;;;;;;-1.21;100.00;99885.88;6025881;28;20025;-80
2023/12/05 06:55:56;;;;;;;33.90;13.02;;;;;;;-1.21;100.00;99885.88;6028890;28;20076;-82
2023/12/05 06:58:51;;;;;;;37.10;13.23;;;;;;;-1.22;100.00;99879.00;6028449;28;20030;-80
2023/12/05 07:01:47;;;;;;;44.40;13.30;;;;;;;-1.24;100.00;99899.06;6029041;28;20395;-81
2023/12/05 07:04:42;;;;;;;34.43;14.33;;;;;;;-1.34;100.00;99874.56;6028395;28;20104;-81
2023/12/05 07:07:38;;;;;;;39.78;14.82;;;;;;;-1.24;100.00;99900.81;6027551;28;20019;-79
2023/12/05 07:10:33;;;;;;;47.10;15.00;;;;;;;-1.27;100.00;99901.84;6026692;28;20026;-79
2023/12/05 07:13:28;;;;;;;52.00;17.67;;;;;;;-1.28;100.00;99896.75;6024812;28;20034;-81
2023/12/05 07:16:24;;;;;;;31.83;11.23;;;;;;;-1.27;100.00;99894.03;6025815;28;20293;-80
2023/12/05 07:19:19;;;;;;;37.00;13.63;;;;;;;-1.26;100.00;99894.88;6027044;28;20376;-79
2023/12/05 07:22:14;;;;;;;48.67;14.30;;;;;;;-1.21;100.00;99904.09;6030253;28;20274;-79
2023/12/05 07:25:11;;;;;;;40.00;13.93;;;;;;;-1.26;100.00;99895.72;6027035;28;20073;-78
2023/12/05 07:28:06;;;;;;;42.15;14.80;;;;;;;-1.24;100.00;99901.66;6027841;28;20273;-80
2023/12/05 07:31:01;;;;;;;48.90;18.67;;;;;;;-1.27;100.00;99903.59;6027642;28;20045;-77
2023/12/05 07:33:57;;;;;;;39.00;13.97;;;;;;;-1.18;100.00;99920.44;6026943;28;20038;-78
2023/12/05 07:36:53;;;;;;;40.88;13.20;;;;;;;-1.15;100.00;99913.28;6029894;28;20118;-80
2023/12/05 07:39:48;;;;;;;36.90;12.87;;;;;;;-1.14;100.00;99917.53;6024752;28;20389;-80
2023/12/05 07:42:44;;;;;;;48.80;15.70;;;;;;;-1.14;100.00;99901.94;6027418;28;20018;-78
2023/12/05 07:45:39;;;;;;;41.45;15.38;;;;;;;-1.12;100.00;99910.50;6022778;28;20030;-80
2023/12/05 07:48:34;;;;;;;39.53;13.63;;;;;;;-1.06;100.00;99912.72;6025695;28;20026;-77
2023/12/05 07:51:30;;;;;;;36.17;13.20;;;;;;;-1.04;100.00;99908.28;6029085;28;20042;-78
2023/12/05 07:54:25;;;;;;;46.17;15.97;;;;;;;-0.97;100.00;99919.13;6031757;28;20069;-78
2023/12/05 07:57:22;;;;;;;41.38;14.88;;;;;;;-1.02;100.00;99913.38;6039372;28;20502;-77
2023/12/05 08:00:18;;;;;;;47.90;15.70;;;;;;;-0.96;100.00;99923.41;6026106;28;20040;-78
2023/12/05 08:03:14;;;;;;;37.92;12.88;;;;;;;-0.93;100.00;99910.22;6032943;28;20168;-77
2023/12/05 08:06:09;;;;;;;47.90;13.65;;;;;;;-0.88;100.00;99923.78;6035611;28;20038;-77
2023/12/05 08:09:06;;;;;;;41.80;13.07;;;;;;;-0.90;100.00;99912.63;6027724;28;20033;-78
2023/12/05 08:12:01;;;;;;;43.90;16.58;;;;;;;-0.86;100.00;99919.31;6027727;28;20109;-78
2023/12/05 08:14:57;;;;;;;54.97;16.03;;;;;;;-0.76;100.00;99930.84;6034990;28;20026;-77
2023/12/05 08:17:52;;;;;;;38.30;14.40;;;;;;;-0.70;100.00;99943.47;6037860;28;20026;-77
2023/12/05 08:20:47;;;;;;;43.50;15.83;;;;;;;-0.67;100.00;99935.47;6031664;28;20042;-78
2023/12/05 08:23:43;;;;;;;34.15;13.32;;;;;;;-0.66;100.00;99924.13;6028941;28;20395;-78
2023/12/05 08:26:38;;;;;;;35.60;11.13;;;;;;;-0.61;100.00;99943.75;6032863;28;20041;-78
2023/12/05 08:29:33;;;;;;;33.53;12.70;;;;;;;-0.66;100.00;99930.19;6028119;28;20030;-78
2023/12/05 08:32:29;;;;;;;34.77;11.33;;;;;;;-0.58;100.00;99934.06;6035067;28;20188;-78
2023/12/05 08:35:25;;;;;;;41.87;13.00;;;;;;;-0.56;100.00;99927.00;6033465;28;20026;-79
2023/12/05 08:38:20;;;;;;;26.35;11.48;;;;;;;-0.52;100.00;99934.53;6039255;28;20289;-77
2023/12/05 08:41:21;;;;;;;27.80;10.57;;;;;;;-0.53;100.00;99930.25;6031776;28;20121;-79
2023/12/05 08:44:17;;;;;;;38.53;14.07;;;;;;;-0.45;100.00;99941.03;6029027;28;20025;-78
2023/12/05 08:47:13;;;;;;;35.88;13.07;;;;;;;-0.51;100.00;99928.38;6027403;28;20053;-79
2023/12/05 08:50:09;;;;;;;35.75;11.68;;;;;;;-0.42;100.00;99938.22;6033597;28;20049;-79
2023/12/05 08:53:04;;;;;;;38.50;12.05;;;;;;;-0.42;100.00;99922.59;6014858;28;20369;-80
2023/12/05 08:56:15;;;;;;;35.70;13.80;;;;;;;-0.35;100.00;99933.44;6032407;28;20049;-80
2023/12/05 08:59:11;;;;;;;32.75;11.60;;;;;;;-0.32;100.00;99931.50;6035333;28;20026;-81
2023/12/05 09:02:07;;;;;;;30.38;11.25;;;;;;;-0.30;100.00;99928.81;6031019;28;20492;-79
2023/12/05 09:05:04;;;;;;;36.63;14.38;;;;;;;-0.32;100.00;99933.25;6037189;28;20528;-80
2023/12/05 09:08:00;;;;;;;33.78;13.60;;;;;;;-0.34;100.00;99935.97;6028445;28;20473;-78
2023/12/05 09:10:58;;;;;;;37.85;12.85;;;;;;;-0.37;100.00;99922.31;6025950;28;20033;-80
2023/12/05 09:13:54;;;;;;;38.33;11.68;;;;;;;-0.21;100.00;99936.88;6029326;28;20038;-79
2023/12/05 09:16:50;;;;;;;32.28;12.68;;;;;;;-0.22;100.00;99937.78;6034359;28;20069;-78
2023/12/05 09:19:46;;;;;;;32.38;11.55;;;;;;;-0.18;100.00;99934.06;6034750;28;20478;-78
2023/12/05 09:22:41;;;;;;;38.47;15.32;;;;;;;-0.17;100.00;99940.97;6038140;28;20038;-78
2023/12/05 09:25:38;;;;;;;39.42;12.93;;;;;;;-0.10;100.00;99944.84;6038461;28;20085;-78
2023/12/05 09:28:34;;;;;;;35.30;11.93;;;;;;;-0.13;100.00;99939.81;6026514;28;20121;-79
2023/12/05 09:31:32;;;;;;;32.47;12.55;;;;;;;-0.16;100.00;99942.63;6038069;28;20034;-78
2023/12/05 09:34:27;;;;;;;33.13;12.88;;;;;;;-0.09;100.00;99954.34;6035747;28;20027;-79
2023/12/05 09:37:59;;;;;;;42.83;12.75;;;;;;;-0.03;100.00;99950.50;6032502;28;20633;-80
2023/12/05 09:40:57;;;;;;;36.08;12.15;;;;;;;0.02;100.00;99955.41;5995195;28;20066;-79
2023/12/05 09:43:53;;;;;;;33.70;11.43;;;;;;;0.06;100.00;99949.06;6028655;28;20038;-79
2023/12/05 09:46:57;;;;;;;32.50;10.85;;;;;;;0.05;100.00;99942.19;6029026;28;20402;-80
2023/12/05 09:49:54;;;;;;;26.15;9.50;;;;;;;0.04;100.00;99949.16;6026837;28;20042;-80
2023/12/05 09:52:50;;;;;;;32.65;11.43;;;;;;;0.03;100.00;99937.06;6029330;28;20113;-80
2023/12/05 09:55:45;;;;;;;25.70;9.03;;;;;;;0.14;100.00;99941.56;6031359;28;20034;-79
2023/12/05 09:58:43;;;;;;;33.10;9.70;;;;;;;0.18;100.00;99943.91;6030294;28;20176;-78
2023/12/05 10:01:39;;;;;;;36.28;11.45;;;;;;;0.23;100.00;99946.19;6029418;28;20383;-79
2023/12/05 10:04:44;;;;;;;35.88;12.88;;;;;;;0.26;100.00;99946.00;6049165;28;20034;-78
2023/12/05 10:07:40;;;;;;;32.95;12.38;;;;;;;0.19;100.00;99934.31;6035626;28;20034;-79
2023/12/05 10:10:43;;;;;;;34.17;13.25;;;;;;;0.18;100.00;99943.06;6027152;28;20042;-79
2023/12/05 10:13:38;;;;;;;35.60;13.95;;;;;;;0.20;100.00;99930.75;6031757;28;20039;-79
2023/12/05 10:16:34;;;;;;;36.43;16.23;;;;;;;0.24;100.00;99932.25;6032372;28;20062;-79
2023/12/05 10:19:29;;;;;;;42.60;17.88;;;;;;;0.27;100.00;99937.25;6028846;28;20056;-80
2023/12/05 10:22:26;;;;;;;30.85;11.85;;;;;;;0.26;100.00;99940.78;6030439;28;20065;-79
2023/12/05 10:25:21;;;;;;;32.97;12.02;;;;;;;0.29;100.00;99935.38;6029946;28;20033;-79
2023/12/05 10:28:16;;;;;;;31.47;13.20;;;;;;;0.27;100.00;99932.84;6028212;28;20052;-78
2023/12/05 10:31:15;;;;;;;34.80;11.37;;;;;;;0.25;100.00;99923.47;6031544;28;20780;-80
2023/12/05 10:34:10;;;;;;;31.42;10.55;;;;;;;0.36;100.00;99931.41;6028695;28;20026;-79
2023/12/05 10:37:06;;;;;;;36.17;11.77;;;;;;;0.32;100.00;99929.97;6037068;28;20044;-80
2023/12/05 10:40:01;;;;;;;30.87;10.10;;;;;;;0.39;100.00;99933.84;6023110;28;20111;-80
2023/12/05 10:42:57;;;;;;;34.23;10.73;;;;;;;0.32;100.00;99920.38;6029730;28;20057;-80
2023/12/05 10:45:54;;;;;;;36.78;13.13;;;;;;;0.38;100.00;99919.16;6025192;28;20030;-81
2023/12/05 10:48:55;;;;;;;37.45;14.48;;;;;;;0.41;100.00;99934.56;6018180;28;20125;-80
2023/12/05 10:51:51;;;;;;;32.17;12.38;;;;;;;0.48;100.00;99931.47;6026922;28;20037;-81
2023/12/05 10:54:55;;;;;;;30.23;11.97;;;;;;;0.48;100.00;99909.75;6029119;28;20029;-81
2023/12/05 10:57:51;;;;;;;29.27;12.15;;;;;;;0.48;100.00;99912.38;6021206;28;20278;-80
2023/12/05 11:00:46;;;;;;;32.00;10.77;;;;;;;0.65;100.00;99922.53;6007314;28;20059;-81
2023/12/05 11:03:42;;;;;;;30.83;11.45;;;;;;;0.68;100.00;99924.09;6022032;28;20052;-81
2023/12/05 11:06:37;;;;;;;32.92;12.45;;;;;;;0.60;100.00;99906.31;5999245;28;20030;-82
2023/12/05 11:09:35;;;;;;;29.70;11.60;;;;;;;0.68;100.00;99926.69;6006424;28;20068;-83
2023/12/05 11:12:32;;;;;;;35.35;11.48;;;;;;;0.70;100.00;99909.16;6024735;28;20049;-81
2023/12/05 11:15:29;;;;;;;33.92;13.05;;;;;;;0.73;100.00;99920.22;6023010;28;20432;-80
2023/12/05 11:18:42;;;;;;;34.33;11.68;;;;;;;0.70;100.00;99911.78;6030270;28;20043;-80
2023/12/05 11:21:52;;;;;;;29.20;11.63;;;;;;;0.67;100.00;99915.41;6027874;28;20117;-75
2023/12/05 11:25:21;;;;;;;34.08;13.10;;;;;;;0.70;100.00;99909.16;6025621;28;20030;-77
2023/12/05 11:28:26;;;;;;;35.65;12.27;;;;;;;0.84;100.00;99929.94;6017439;28;20091;-77
2023/12/05 11:31:42;;;;;;;25.33;10.57;;;;;;;0.75;100.00;99922.72;6023497;28;20120;-76
2023/12/05 11:35:06;;;;;;;26.30;10.75;;;;;;;0.80;100.00;99926.69;6025858;28;20030;-76
2023/12/05 11:38:05;;;;;;;27.23;9.45;;;;;;;0.88;100.00;99918.34;6043927;28;20478;-76
2023/12/05 11:41:20;;;;;;;32.53;12.32;;;;;;;0.82;100.00;99923.97;6021079;28;20037;-76
2023/12/05 11:44:19;;;;;;;27.58;9.68;;;;;;;0.79;100.00;99918.97;6023034;28;20554;-77
2023/12/05 11:47:27;;;;;;;35.03;12.82;;;;;;;0.71;100.00;99929.09;6022266;28;20378;-76
2023/12/05 11:50:22;;;;;;;31.40;11.93;;;;;;;0.79;100.00;99921.59;6028795;28;20080;-76
2023/12/05 11:53:18;;;;;;;30.90;10.50;;;;;;;0.72;100.00;99923.75;6024449;28;20030;-76
2023/12/05 11:56:19;;;;;;;25.02;9.35;;;;;;;0.84;100.00;99911.66;6033763;28;20037;-76
2023/12/05 11:59:15;;;;;;;;;;;;;;;1.02;100.00;99921.69;6030248;28;20473;-77
2023/12/05 12:02:25;;;;;;;32.25;10.75;;;;;;;0.91;100.00;99929.41;6019808;28;20320;-77
2023/12/05 12:05:20;;;;;;;30.25;11.90;;;;;;;0.88;100.00;99919.19;6036991;28;20073;-77
2023/12/05 12:08:15;;;;;;;23.90;8.90;;;;;;;0.86;100.00;99926.28;6038606;28;20478;-75
2023/12/05 12:11:11;;;;;;;25.97;10.33;;;;;;;0.90;100.00;99914.69;6026764;28;20038;-76
2023/12/05 12:14:18;;;;;;;23.15;9.38;;;;;;;0.86;100.00;99920.22;6037871;28;20768;-77
2023/12/05 12:17:14;;;;;;;28.40;11.32;;;;;;;0.79;100.00;99919.78;6035209;28;21153;-76
2023/12/05 12:20:16;;;;;;;34.78;10.73;;;;;;;0.83;100.00;99920.44;6032087;28;20065;-75
2023/12/05 12:23:14;;;;;;;28.30;11.00;;;;;;;0.79;100.00;99919.78;6029729;28;20390;-75
2023/12/05 12:26:09;;;;;;;29.33;11.23;;;;;;;0.78;100.00;99933.78;6030305;28;20034;-76
2023/12/05 12:29:08;;;;;;;28.98;10.05;;;;;;;0.72;100.00;99917.72;6037786;28;20568;-75
2023/12/05 12:32:06;;;;;;;35.25;12.45;;;;;;;0.74;100.00;99929.72;6031989;28;20541;-76
2023/12/05 12:35:02;;;;;;;26.42;10.85;;;;;;;0.63;100.00;99923.53;6035487;28;20422;-75
2023/12/05 12:37:57;;;;;;;28.08;11.82;;;;;;;0.68;100.00;99930.13;6034480;28;20061;-76
2023/12/05 12:40:53;;;;;;;33.17;11.43;;;;;;;0.64;100.00;99920.84;6026003;28;20394;-75
2023/12/05 12:43:48;;;;;;;29.77;13.38;;;;;;;0.70;100.00;99928.25;6025098;28;20281;-74
2023/12/05 12:46:44;;;;;;;36.38;12.55;;;;;;;0.63;100.00;99924.38;6030848;28;20532;-75
2023/12/05 12:49:39;;;;;;;32.22;10.55;;;;;;;0.52;100.00;99908.59;6041459;28;20033;-75
2023/12/05 12:52:35;;;;;;;29.40;11.20;;;;;;;0.69;100.00;99937.00;6035234;28;20048;-76
2023/12/05 12:55:31;;;;;;;30.40;10.40;;;;;;;0.65;100.00;99932.97;6033062;28;20042;-75
2023/12/05 12:58:36;;;;;;;39.38;12.65;;;;;;;0.73;100.00;99938.50;6036141;28;20034;-75
2023/12/05 13:01:34;;;;;;;27.60;10.20;;;;;;;0.74;100.00;99934.94;6041479;28;20049;-76
2023/12/05 13:04:34;;;;;;;33.70;11.00;;;;;;;0.69;100.00;99929.19;6032874;28;20478;-76
2023/12/05 13:07:30;;;;;;;29.50;11.52;;;;;;;0.74;100.00;99931.47;6035722;28;20069;-76
2023/12/05 13:10:27;;;;;;;36.83;13.02;;;;;;;0.70;100.00;99924.81;6035757;28;20038;-74
2023/12/05 13:13:23;;;;;;;30.90;11.98;;;;;;;0.70;100.00;99932.63;6030717;28;20092;-75
2023/12/05 13:16:18;;;;;;;43.53;13.48;;;;;;;0.76;100.00;99935.66;6030753;28;20030;-76
2023/12/05 13:19:35;;;;;;;29.37;10.23;;;;;;;0.71;100.00;99937.72;6033661;28;20491;-75
2023/12/05 13:22:31;;;;;;;61.75;17.35;;;;;;;0.74;100.00;99942.75;6031495;28;20321;-75
2023/12/05 13:25:26;;;;;;;33.00;12.07;;;;;;;0.73;100.00;99942.88;6031154;28;20103;-75
2023/12/05 13:28:23;;;;;;;34.88;13.88;;;;;;;0.76;100.00;99940.88;6039798;28;20040;-75
2023/12/05 13:31:18;;;;;;;41.05;13.10;;;;;;;0.73;100.00;99943.72;6035537;28;20046;-75
2023/12/05 13:34:15;;;;;;;33.63;12.27;;;;;;;0.78;100.00;99946.84;6033634;28;20045;-76
2023/12/05 13:37:10;;;;;;;33.78;11.13;;;;;;;0.70;100.00;99935.25;6032559;28;20031;-75
2023/12/05 13:40:06;;;;;;;32.30;10.67;;;;;;;0.73;100.00;99933.28;6025814;28;20081;-76
2023/12/05 13:43:02;;;;;;;44.92;13.85;;;;;;;0.86;100.00;99946.31;6024600;28;20078;-76
2023/12/05 13:45:57;;;;;;;37.22;13.77;;;;;;;0.83;100.00;99938.69;6027689;28;20030;-75
2023/12/05 13:48:53;;;;;;;41.38;11.75;;;;;;;0.90;100.00;99943.38;6028368;28;20038;-75
2023/12/05 13:51:49;;;;;;;33.88;11.75;;;;;;;0.84;100.00;99925.56;6040575;28;20188;-75
2023/12/05 13:54:45;;;;;;;31.37;11.63;;;;;;;0.90;100.00;99946.00;6034093;28;20043;-75
2023/12/05 13:57:41;;;;;;;42.05;13.55;;;;;;;0.90;100.00;99946.00;6029804;28;20026;-75